createdAt,value
2018-09-08T00:00:46.406Z,1005.07
2018-09-08T00:01:46.390Z,1005.11
2018-09-08T00:02:46.352Z,1005.08
2018-09-08T00:03:46.321Z,1005.09
2018-09-08T00:04:46.317Z,1005.10
2018-09-08T00:05:46.255Z,1005.07
2018-09-08T00:06:46.238Z,1005.07
2018-09-08T00:07:46.208Z,1005.08
2018-09-08T00:08:46.178Z,1005.07
2018-09-08T00:09:46.149Z,1005.08
2018-09-08T00:10:46.126Z,1005.05
2018-09-08T00:11:46.098Z,1005.06
2018-09-08T00:12:46.069Z,1005.10
2018-09-08T00:13:46.047Z,1005.07
2018-09-08T00:14:46.019Z,1005.08
2018-09-08T00:15:45.995Z,1005.03
2018-09-08T00:16:45.968Z,1005.08
2018-09-08T00:17:45.956Z,1005.08
2018-09-08T00:18:45.910Z,1005.09
2018-09-08T00:19:45.886Z,1005.09
2018-09-08T00:20:45.868Z,1005.09
2018-09-08T00:21:45.841Z,1005.08
2018-09-08T00:22:45.863Z,1005.08
2018-09-08T00:23:45.788Z,1005.07
2018-09-08T00:24:45.761Z,1005.07
2018-09-08T00:25:45.729Z,1005.14
2018-09-08T00:26:45.711Z,1005.14
2018-09-08T00:27:45.683Z,1005.09
2018-09-08T00:28:45.647Z,1005.14
2018-09-08T00:29:45.626Z,1005.11
2018-09-08T00:30:45.601Z,1005.12
2018-09-08T00:31:45.572Z,1005.15
2018-09-08T00:32:45.552Z,1005.14
2018-09-08T00:33:45.527Z,1005.15
2018-09-08T00:34:45.494Z,1005.15
2018-09-08T00:35:45.468Z,1005.15
2018-09-08T00:36:45.447Z,1005.14
2018-09-08T00:37:45.412Z,1005.18
2018-09-08T00:38:45.395Z,1005.13
2018-09-08T00:39:45.367Z,1005.10
2018-09-08T00:40:45.334Z,1005.08
2018-09-08T00:41:45.319Z,1005.07
2018-09-08T00:42:45.283Z,1005.06
2018-09-08T00:43:45.260Z,1005.07
2018-09-08T00:44:45.231Z,1005.08
2018-09-08T00:45:45.212Z,1005.08
2018-09-08T00:46:45.177Z,1005.07
2018-09-08T00:47:45.153Z,1005.15
2018-09-08T00:48:45.129Z,1005.11
2018-09-08T00:49:45.099Z,1005.08
2018-09-08T00:50:45.078Z,1005.06
2018-09-08T00:51:45.046Z,1005.07
2018-09-08T00:52:45.024Z,1005.11
2018-09-08T00:53:44.996Z,1005.06
2018-09-08T00:54:44.971Z,1005.09
2018-09-08T00:55:44.945Z,1005.11
2018-09-08T00:56:44.927Z,1005.10
2018-09-08T00:57:44.895Z,1005.11
2018-09-08T00:58:44.863Z,1005.13
2018-09-08T00:59:44.836Z,1005.13
2018-09-08T01:00:44.814Z,1005.12
2018-09-08T01:01:44.783Z,1005.21
2018-09-08T01:02:44.761Z,1005.15
2018-09-08T01:03:44.761Z,1005.22
2018-09-08T01:04:44.705Z,1005.20
2018-09-08T01:05:44.694Z,1005.20
2018-09-08T01:06:44.654Z,1005.26
2018-09-08T01:07:44.630Z,1005.24
2018-09-08T01:08:44.599Z,1005.26
2018-09-08T01:09:44.571Z,1005.27
2018-09-08T01:10:44.547Z,1005.26
2018-09-08T01:11:44.522Z,1005.32
2018-09-08T01:12:44.498Z,1005.30
2018-09-08T01:13:44.477Z,1005.30
2018-09-08T01:14:44.440Z,1005.31
2018-09-08T01:15:44.420Z,1005.27
2018-09-08T01:16:44.395Z,1005.29
2018-09-08T01:17:44.368Z,1005.33
2018-09-08T01:18:44.338Z,1005.33
2018-09-08T01:19:44.315Z,1005.32
2018-09-08T01:20:44.286Z,1005.33
2018-09-08T01:21:44.259Z,1005.36
2018-09-08T01:22:44.235Z,1005.35
2018-09-08T01:23:44.214Z,1005.38
2018-09-08T01:24:44.177Z,1005.33
2018-09-08T01:25:44.162Z,1005.41
2018-09-08T01:26:44.125Z,1005.39
2018-09-08T01:27:44.100Z,1005.41
2018-09-08T01:28:44.081Z,1005.44
2018-09-08T01:29:44.049Z,1005.41
2018-09-08T01:30:44.031Z,1005.36
2018-09-08T01:31:44.005Z,1005.35
2018-09-08T01:32:43.970Z,1005.37
2018-09-08T01:33:43.951Z,1005.35
2018-09-08T01:34:43.915Z,1005.37
2018-09-08T01:35:43.900Z,1005.39
2018-09-08T01:36:43.864Z,1005.36
2018-09-08T01:37:43.843Z,1005.36
2018-09-08T01:38:43.815Z,1005.32
2018-09-08T01:39:43.784Z,1005.35
2018-09-08T01:40:43.761Z,1005.34
2018-09-08T01:41:43.731Z,1005.39
2018-09-08T01:42:43.713Z,1005.39
2018-09-08T01:43:43.685Z,1005.44
2018-09-08T01:44:43.676Z,1005.48
2018-09-08T01:45:43.638Z,1005.51
2018-09-08T01:46:43.603Z,1005.50
2018-09-08T01:47:43.579Z,1005.45
2018-09-08T01:48:43.549Z,1005.47
2018-09-08T01:49:43.521Z,1005.48
2018-09-08T01:50:43.505Z,1005.50
2018-09-08T01:51:43.477Z,1005.47
2018-09-08T01:52:43.442Z,1005.51
2018-09-08T01:53:43.417Z,1005.49
2018-09-08T01:54:43.395Z,1005.55
2018-09-08T01:55:43.371Z,1005.49
2018-09-08T01:56:43.341Z,1005.52
2018-09-08T01:57:43.315Z,1005.48
2018-09-08T01:58:43.289Z,1005.48
2018-09-08T01:59:43.265Z,1005.43
2018-09-08T02:00:43.247Z,1005.45
2018-09-08T02:01:43.212Z,1005.43
2018-09-08T02:02:43.183Z,1005.39
2018-09-08T02:03:43.158Z,1005.42
2018-09-08T02:04:43.131Z,1005.41
2018-09-08T02:05:43.108Z,1005.37
2018-09-08T02:06:43.079Z,1005.39
2018-09-08T02:07:43.052Z,1005.38
2018-09-08T02:08:43.023Z,1005.36
2018-09-08T02:09:43.001Z,1005.39
2018-09-08T02:10:42.973Z,1005.41
2018-09-08T02:11:42.947Z,1005.39
2018-09-08T02:12:42.919Z,1005.36
2018-09-08T02:13:42.889Z,1005.38
2018-09-08T02:14:42.872Z,1005.34
2018-09-08T02:15:42.841Z,1005.38
2018-09-08T02:16:42.816Z,1005.32
2018-09-08T02:17:42.793Z,1005.30
2018-09-08T02:18:42.760Z,1005.29
2018-09-08T02:19:42.731Z,1005.31
2018-09-08T02:20:42.713Z,1005.29
2018-09-08T02:21:42.680Z,1005.35
2018-09-08T02:22:42.661Z,1005.33
2018-09-08T02:23:42.634Z,1005.38
2018-09-08T02:24:42.601Z,1005.43
2018-09-08T02:25:42.583Z,1005.37
2018-09-08T02:26:42.551Z,1005.39
2018-09-08T02:27:42.529Z,1005.45
2018-09-08T02:28:42.505Z,1005.45
2018-09-08T02:29:42.476Z,1005.41
2018-09-08T02:30:42.444Z,1005.43
2018-09-08T02:31:42.415Z,1005.43
2018-09-08T02:32:42.398Z,1005.46
2018-09-08T02:33:42.364Z,1005.43
2018-09-08T02:34:42.347Z,1005.41
2018-09-08T02:35:42.309Z,1005.38
2018-09-08T02:36:42.293Z,1005.36
2018-09-08T02:37:42.265Z,1005.38
2018-09-08T02:38:42.244Z,1005.39
2018-09-08T02:39:42.214Z,1005.35
2018-09-08T02:40:42.178Z,1005.42
2018-09-08T02:41:42.156Z,1005.39
2018-09-08T02:42:42.134Z,1005.40
2018-09-08T02:43:42.107Z,1005.41
2018-09-08T02:44:42.079Z,1005.38
2018-09-08T02:45:42.054Z,1005.44
2018-09-08T02:46:42.026Z,1005.47
2018-09-08T02:47:41.995Z,1005.43
2018-09-08T02:48:41.976Z,1005.42
2018-09-08T02:49:41.947Z,1005.38
2018-09-08T02:50:41.926Z,1005.44
2018-09-08T02:51:41.901Z,1005.44
2018-09-08T02:52:41.868Z,1005.46
2018-09-08T02:53:41.840Z,1005.42
2018-09-08T02:54:41.819Z,1005.43
2018-09-08T02:55:41.790Z,1005.49
2018-09-08T02:56:41.762Z,1005.46
2018-09-08T02:57:41.739Z,1005.44
2018-09-08T02:58:41.708Z,1005.51
2018-09-08T02:59:41.679Z,1005.47
2018-09-08T03:00:41.656Z,1005.47
2018-09-08T03:01:41.627Z,1005.43
2018-09-08T03:02:41.609Z,1005.47
2018-09-08T03:03:41.584Z,1005.45
2018-09-08T03:04:41.548Z,1005.46
2018-09-08T03:05:41.535Z,1005.50
2018-09-08T03:06:41.500Z,1005.58
2018-09-08T03:07:41.474Z,1005.57
2018-09-08T03:08:41.451Z,1005.55
2018-09-08T03:09:41.416Z,1005.53
2018-09-08T03:10:41.401Z,1005.51
2018-09-08T03:11:41.365Z,1005.55
2018-09-08T03:12:41.342Z,1005.54
2018-09-08T03:13:41.317Z,1005.61
2018-09-08T03:14:41.289Z,1005.56
2018-09-08T03:15:41.259Z,1005.62
2018-09-08T03:16:41.232Z,1005.62
2018-09-08T03:17:41.214Z,1005.62
2018-09-08T03:18:41.178Z,1005.62
2018-09-08T03:19:41.153Z,1005.65
2018-09-08T03:20:41.133Z,1005.67
2018-09-08T03:21:41.105Z,1005.72
2018-09-08T03:22:41.084Z,1005.65
2018-09-08T03:23:41.052Z,1005.72
2018-09-08T03:24:41.026Z,1005.69
2018-09-08T03:25:41.002Z,1005.69
2018-09-08T03:26:40.966Z,1005.67
2018-09-08T03:27:40.941Z,1005.66
2018-09-08T03:28:40.924Z,1005.62
2018-09-08T03:29:40.894Z,1005.65
2018-09-08T03:30:40.865Z,1005.66
2018-09-08T03:31:40.837Z,1005.69
2018-09-08T03:32:40.854Z,1005.71
2018-09-08T03:33:40.789Z,1005.70
2018-09-08T03:34:40.761Z,1005.74
2018-09-08T03:35:40.736Z,1005.77
2018-09-08T03:36:40.709Z,1005.73
2018-09-08T03:37:40.687Z,1005.78
2018-09-08T03:38:40.656Z,1005.76
2018-09-08T03:39:40.632Z,1005.74
2018-09-08T03:40:40.606Z,1005.76
2018-09-08T03:41:40.577Z,1005.75
2018-09-08T03:42:40.548Z,1005.79
2018-09-08T03:43:40.525Z,1005.76
2018-09-08T03:44:40.492Z,1005.75
2018-09-08T03:45:40.469Z,1005.77
2018-09-08T03:46:40.445Z,1005.75
2018-09-08T03:47:40.424Z,1005.70
2018-09-08T03:48:40.392Z,1005.68
2018-09-08T03:49:40.369Z,1005.69
2018-09-08T03:50:40.334Z,1005.72
2018-09-08T03:51:40.308Z,1005.77
2018-09-08T03:52:40.289Z,1005.76
2018-09-08T03:53:40.254Z,1005.81
2018-09-08T03:54:40.236Z,1005.81
2018-09-08T03:55:40.211Z,1005.77
2018-09-08T03:56:40.177Z,1005.76
2018-09-08T03:57:40.157Z,1005.78
2018-09-08T03:58:40.126Z,1005.80
2018-09-08T03:59:40.099Z,1005.75
2018-09-08T04:00:40.078Z,1005.81
2018-09-08T04:01:40.045Z,1005.81
2018-09-08T04:02:40.026Z,1005.78
2018-09-08T04:03:39.990Z,1005.79
2018-09-08T04:04:39.968Z,1005.78
2018-09-08T04:05:39.977Z,1005.80
2018-09-08T04:06:39.914Z,1005.74
2018-09-08T04:07:39.897Z,1005.78
2018-09-08T04:08:39.860Z,1005.77
2018-09-08T04:09:39.837Z,1005.78
2018-09-08T04:10:39.810Z,1005.74
2018-09-08T04:11:39.788Z,1005.76
2018-09-08T04:12:39.755Z,1005.74
2018-09-08T04:13:39.728Z,1005.81
2018-09-08T04:14:39.708Z,1005.82
2018-09-08T04:15:39.681Z,1005.79
2018-09-08T04:16:39.647Z,1005.81
2018-09-08T04:17:39.627Z,1005.80
2018-09-08T04:18:39.600Z,1005.81
2018-09-08T04:19:39.571Z,1005.78
2018-09-08T04:20:39.541Z,1005.82
2018-09-08T04:21:39.523Z,1005.80
2018-09-08T04:22:39.489Z,1005.80
2018-09-08T04:23:39.463Z,1005.85
2018-09-08T04:24:39.447Z,1005.84
2018-09-08T04:25:39.417Z,1005.83
2018-09-08T04:26:39.391Z,1005.89
2018-09-08T04:27:39.365Z,1005.86
2018-09-08T04:28:39.333Z,1005.86
2018-09-08T04:29:39.397Z,1005.81
2018-09-08T04:30:39.282Z,1005.80
2018-09-08T04:31:39.258Z,1005.79
2018-09-08T04:32:39.228Z,1005.85
2018-09-08T04:33:39.199Z,1005.78
2018-09-08T04:34:39.182Z,1005.77
2018-09-08T04:35:39.146Z,1005.79
2018-09-08T04:36:39.122Z,1005.79
2018-09-08T04:37:39.102Z,1005.80
2018-09-08T04:38:39.072Z,1005.85
2018-09-08T04:39:39.047Z,1005.85
2018-09-08T04:40:39.020Z,1005.77
2018-09-08T04:41:38.996Z,1005.76
2018-09-08T04:42:38.967Z,1005.84
2018-09-08T04:43:38.937Z,1005.86
2018-09-08T04:44:38.915Z,1005.85
2018-09-08T04:45:38.881Z,1005.82
2018-09-08T04:46:38.864Z,1005.84
2018-09-08T04:47:38.837Z,1005.83
2018-09-08T04:48:38.802Z,1005.85
2018-09-08T04:49:38.784Z,1005.88
2018-09-08T04:50:38.749Z,1005.93
2018-09-08T04:51:38.733Z,1005.90
2018-09-08T04:52:38.698Z,1005.90
2018-09-08T04:53:38.680Z,1005.94
2018-09-08T04:54:38.649Z,1005.93
2018-09-08T04:55:38.620Z,1005.90
2018-09-08T04:56:38.601Z,1005.95
2018-09-08T04:57:38.569Z,1005.93
2018-09-08T04:58:38.541Z,1005.99
2018-09-08T04:59:38.549Z,1005.98
2018-09-08T05:00:38.492Z,1005.94
2018-09-08T05:01:38.461Z,1005.99
2018-09-08T05:02:38.441Z,1006.00
2018-09-08T05:03:38.413Z,1005.92
2018-09-08T05:04:38.382Z,1005.88
2018-09-08T05:05:38.359Z,1005.97
2018-09-08T05:06:38.379Z,1005.97
2018-09-08T05:07:38.307Z,1005.97
2018-09-08T05:08:38.317Z,1006.06
2018-09-08T05:09:38.284Z,1006.02
2018-09-08T05:10:38.224Z,1006.10
2018-09-08T05:11:38.200Z,1006.13
2018-09-08T05:12:38.177Z,1006.09
2018-09-08T05:13:38.143Z,1006.11
2018-09-08T05:14:38.124Z,1006.09
2018-09-08T05:15:38.170Z,1006.12
2018-09-08T05:16:38.070Z,1006.10
2018-09-08T05:17:38.044Z,1006.09
2018-09-08T05:18:38.882Z,1006.06
2018-09-08T05:19:37.994Z,1006.12
2018-09-08T05:20:37.972Z,1006.15
2018-09-08T05:21:37.939Z,1006.13
2018-09-08T05:22:37.907Z,1006.10
2018-09-08T05:23:37.879Z,1006.14
2018-09-08T05:24:37.851Z,1006.17
2018-09-08T05:25:37.828Z,1006.20
2018-09-08T05:26:37.804Z,1006.17
2018-09-08T05:27:37.776Z,1006.16
2018-09-08T05:28:37.769Z,1006.14
2018-09-08T05:29:37.724Z,1006.15
2018-09-08T05:30:37.694Z,1006.18
2018-09-08T05:31:37.675Z,1006.17
2018-09-08T05:32:37.640Z,1006.20
2018-09-08T05:33:37.615Z,1006.23
2018-09-08T05:34:37.592Z,1006.18
2018-09-08T05:35:37.572Z,1006.26
2018-09-08T05:36:37.559Z,1006.25
2018-09-08T05:37:37.509Z,1006.22
2018-09-08T05:38:37.490Z,1006.28
2018-09-08T05:39:37.459Z,1006.25
2018-09-08T05:40:37.437Z,1006.26
2018-09-08T05:41:37.402Z,1006.28
2018-09-08T05:42:37.383Z,1006.35
2018-09-08T05:43:37.351Z,1006.31
2018-09-08T05:44:37.327Z,1006.33
2018-09-08T05:45:37.304Z,1006.33
2018-09-08T05:46:37.271Z,1006.38
2018-09-08T05:47:37.251Z,1006.39
2018-09-08T05:48:37.217Z,1006.40
2018-09-08T05:49:37.193Z,1006.45
2018-09-08T05:50:37.177Z,1006.47
2018-09-08T05:51:37.142Z,1006.46
2018-09-08T05:52:37.115Z,1006.47
2018-09-08T05:53:37.092Z,1006.51
2018-09-08T05:54:37.059Z,1006.51
2018-09-08T05:55:37.040Z,1006.50
2018-09-08T05:56:37.006Z,1006.50
2018-09-08T05:57:36.983Z,1006.53
2018-09-08T05:58:37.006Z,1006.51
2018-09-08T05:59:36.932Z,1006.53
2018-09-08T06:00:36.907Z,1006.49
2018-09-08T06:01:36.879Z,1006.49
2018-09-08T06:02:36.934Z,1006.45
2018-09-08T06:03:36.844Z,1006.49
2018-09-08T06:04:36.794Z,1006.47
2018-09-08T06:05:36.776Z,1006.50
2018-09-08T06:06:36.744Z,1006.55
2018-09-08T06:07:36.715Z,1006.56
2018-09-08T06:08:36.696Z,1006.48
2018-09-08T06:09:36.663Z,1006.56
2018-09-08T06:10:36.644Z,1006.52
2018-09-08T06:11:36.614Z,1006.54
2018-09-08T06:12:36.584Z,1006.51
2018-09-08T06:13:36.582Z,1006.54
2018-09-08T06:14:36.533Z,1006.49
2018-09-08T06:15:36.505Z,1006.47
2018-09-08T06:16:36.481Z,1006.45
2018-09-08T06:17:36.461Z,1006.42
2018-09-08T06:18:36.430Z,1006.46
2018-09-08T06:19:36.449Z,1006.47
2018-09-08T06:20:36.373Z,1006.42
2018-09-08T06:21:36.351Z,1006.45
2018-09-08T06:22:36.321Z,1006.42
2018-09-08T06:23:36.301Z,1006.45
2018-09-08T06:24:36.328Z,1006.45
2018-09-08T06:25:36.280Z,1006.44
2018-09-08T06:26:36.215Z,1006.55
2018-09-08T06:27:36.192Z,1006.48
2018-09-08T06:28:36.287Z,1006.47
2018-09-08T06:29:36.139Z,1006.48
2018-09-08T06:30:36.114Z,1006.49
2018-09-08T06:31:36.141Z,1006.50
2018-09-08T06:32:36.056Z,1006.48
2018-09-08T06:33:36.034Z,1006.52
2018-09-08T06:34:36.006Z,1006.49
2018-09-08T06:35:35.982Z,1006.53
2018-09-08T06:36:35.955Z,1006.58
2018-09-08T06:37:35.932Z,1006.54
2018-09-08T06:38:35.898Z,1006.57
2018-09-08T06:39:35.869Z,1006.57
2018-09-08T06:40:35.852Z,1006.60
2018-09-08T06:41:35.825Z,1006.56
2018-09-08T06:42:35.795Z,1006.60
2018-09-08T06:43:35.770Z,1006.65
2018-09-08T06:44:35.747Z,1006.60
2018-09-08T06:45:35.713Z,1006.58
2018-09-08T06:46:35.694Z,1006.63
2018-09-08T06:47:35.662Z,1006.61
2018-09-08T06:48:35.640Z,1006.66
2018-09-08T06:49:35.616Z,1006.68
2018-09-08T06:50:35.585Z,1006.66
2018-09-08T06:51:35.562Z,1006.66
2018-09-08T06:52:35.530Z,1006.64
2018-09-08T06:53:35.511Z,1006.67
2018-09-08T06:54:35.486Z,1006.66
2018-09-08T06:55:35.452Z,1006.63
2018-09-08T06:56:35.427Z,1006.62
2018-09-08T06:57:35.399Z,1006.62
2018-09-08T06:58:35.380Z,1006.64
2018-09-08T06:59:35.367Z,1006.65
2018-09-08T07:00:35.324Z,1006.65
2018-09-08T07:01:35.294Z,1006.67
2018-09-08T07:02:35.282Z,1006.66
2018-09-08T07:03:35.248Z,1006.62
2018-09-08T07:04:35.213Z,1006.68
2018-09-08T07:05:35.191Z,1006.64
2018-09-08T07:06:35.171Z,1006.69
2018-09-08T07:07:35.139Z,1006.62
2018-09-08T07:08:35.111Z,1006.67
2018-09-08T07:09:35.089Z,1006.63
2018-09-08T07:10:35.066Z,1006.62
2018-09-08T07:11:35.048Z,1006.62
2018-09-08T07:12:35.006Z,1006.62
2018-09-08T07:13:34.981Z,1006.65
2018-09-08T07:14:34.959Z,1006.63
2018-09-08T07:15:34.933Z,1006.64
2018-09-08T07:16:34.897Z,1006.64
2018-09-08T07:17:34.880Z,1006.61
2018-09-08T07:18:34.855Z,1006.63
2018-09-08T07:19:34.825Z,1006.63
2018-09-08T07:20:34.797Z,1006.68
2018-09-08T07:21:34.802Z,1006.63
2018-09-08T07:22:34.824Z,1006.67
2018-09-08T07:23:34.746Z,1006.73
2018-09-08T07:24:34.694Z,1006.70
2018-09-08T07:25:34.666Z,1006.72
2018-09-08T07:26:34.643Z,1006.68
2018-09-08T07:27:34.612Z,1006.73
2018-09-08T07:28:34.588Z,1006.76
2018-09-08T07:29:34.567Z,1006.72
2018-09-08T07:30:34.543Z,1006.71
2018-09-08T07:31:34.509Z,1006.69
2018-09-08T07:32:34.489Z,1006.72
2018-09-08T07:33:34.464Z,1006.78
2018-09-08T07:34:34.434Z,1006.80
2018-09-08T07:35:34.411Z,1006.78
2018-09-08T07:36:34.376Z,1006.82
2018-09-08T07:37:34.360Z,1006.82
2018-09-08T07:38:34.330Z,1006.79
2018-09-08T07:39:34.304Z,1006.85
2018-09-08T07:40:34.277Z,1006.84
2018-09-08T07:41:34.247Z,1006.85
2018-09-08T07:42:34.228Z,1006.83
2018-09-08T07:43:34.202Z,1006.82
2018-09-08T07:44:34.177Z,1006.81
2018-09-08T07:45:34.151Z,1006.83
2018-09-08T07:46:34.122Z,1006.82
2018-09-08T07:47:34.103Z,1006.75
2018-09-08T07:48:34.066Z,1006.81
2018-09-08T07:49:34.046Z,1006.79
2018-09-08T07:50:34.013Z,1006.80
2018-09-08T07:51:33.985Z,1006.85
2018-09-08T07:52:33.970Z,1006.83
2018-09-08T07:53:33.940Z,1006.83
2018-09-08T07:54:33.927Z,1006.85
2018-09-08T07:55:33.889Z,1006.84
2018-09-08T07:56:33.856Z,1006.87
2018-09-08T07:57:33.837Z,1006.89
2018-09-08T07:58:33.813Z,1006.88
2018-09-08T07:59:33.780Z,1006.86
2018-09-08T08:00:33.754Z,1006.87
2018-09-08T08:01:33.732Z,1006.85
2018-09-08T08:02:33.708Z,1006.86
2018-09-08T08:03:33.674Z,1006.91
2018-09-08T08:04:33.681Z,1007.00
2018-09-08T08:05:33.621Z,1006.96
2018-09-08T08:06:33.639Z,1007.00
2018-09-08T08:07:33.579Z,1006.94
2018-09-08T08:08:33.548Z,1007.00
2018-09-08T08:09:33.520Z,1006.94
2018-09-08T08:10:33.503Z,1007.01
2018-09-08T08:11:33.470Z,1007.00
2018-09-08T08:12:33.442Z,1007.06
2018-09-08T08:13:33.444Z,1007.07
2018-09-08T08:14:33.436Z,1007.05
2018-09-08T08:15:33.364Z,1007.01
2018-09-08T08:16:33.340Z,1007.04
2018-09-08T08:17:33.312Z,1007.09
2018-09-08T08:18:33.289Z,1007.04
2018-09-08T08:19:33.261Z,1007.01
2018-09-08T08:20:33.298Z,1007.03
2018-09-08T08:21:33.217Z,1007.01
2018-09-08T08:22:33.183Z,1007.09
2018-09-08T08:23:33.168Z,1007.12
2018-09-08T08:24:33.139Z,1007.10
2018-09-08T08:25:33.109Z,1007.17
2018-09-08T08:26:33.085Z,1007.14
2018-09-08T08:27:33.060Z,1007.09
2018-09-08T08:28:33.034Z,1007.14
2018-09-08T08:29:33.002Z,1007.13
2018-09-08T08:30:32.979Z,1007.13
2018-09-08T08:31:32.949Z,1007.13
2018-09-08T08:32:32.932Z,1007.17
2018-09-08T08:33:32.902Z,1007.15
2018-09-08T08:34:32.878Z,1007.15
2018-09-08T08:35:32.846Z,1007.11
2018-09-08T08:36:32.827Z,1007.11
2018-09-08T08:37:32.797Z,1007.15
2018-09-08T08:38:32.770Z,1007.15
2018-09-08T08:39:32.750Z,1007.23
2018-09-08T08:40:32.718Z,1007.14
2018-09-08T08:41:32.706Z,1007.19
2018-09-08T08:42:32.669Z,1007.23
2018-09-08T08:43:32.640Z,1007.19
2018-09-08T08:44:32.613Z,1007.17
2018-09-08T08:45:32.587Z,1007.13
2018-09-08T08:46:32.569Z,1007.20
2018-09-08T08:47:32.544Z,1007.23
2018-09-08T08:48:32.507Z,1007.21
2018-09-08T08:49:32.492Z,1007.18
2018-09-08T08:50:32.465Z,1007.21
2018-09-08T08:51:32.433Z,1007.19
2018-09-08T08:52:32.503Z,1007.16
2018-09-08T08:53:32.380Z,1007.16
2018-09-08T08:54:32.360Z,1007.11
2018-09-08T08:55:32.333Z,1007.17
2018-09-08T08:56:32.305Z,1007.16
2018-09-08T08:57:32.284Z,1007.19
2018-09-08T08:58:32.264Z,1007.17
2018-09-08T08:59:32.238Z,1007.22
2018-09-08T09:00:32.200Z,1007.17
2018-09-08T09:01:32.176Z,1007.21
2018-09-08T09:02:32.148Z,1007.22
2018-09-08T09:03:32.131Z,1007.22
2018-09-08T09:04:32.100Z,1007.24
2018-09-08T09:05:32.080Z,1007.23
2018-09-08T09:06:32.048Z,1007.19
2018-09-08T09:07:32.032Z,1007.24
2018-09-08T09:08:32.461Z,1007.19
2018-09-08T09:09:31.975Z,1007.14
2018-09-08T09:10:31.945Z,1007.21
2018-09-08T09:11:32.142Z,1007.17
2018-09-08T09:12:32.005Z,1007.20
2018-09-08T09:13:31.936Z,1007.23
2018-09-08T09:14:31.841Z,1007.22
2018-09-08T09:15:32.205Z,1007.27
2018-09-08T09:16:31.797Z,1007.23
2018-09-08T09:17:31.765Z,1007.28
2018-09-08T09:18:32.254Z,1007.29
2018-09-08T09:19:31.716Z,1007.27
2018-09-08T09:20:31.695Z,1007.25
2018-09-08T09:21:31.671Z,1007.27
2018-09-08T09:22:31.637Z,1007.27
2018-09-08T09:23:31.617Z,1007.23
2018-09-08T09:24:31.962Z,1007.24
2018-09-08T09:25:31.569Z,1007.19
2018-09-08T09:26:31.536Z,1007.20
2018-09-08T09:27:31.510Z,1007.16
2018-09-08T09:28:31.491Z,1007.19
2018-09-08T09:29:31.463Z,1007.14
2018-09-08T09:30:31.438Z,1007.09
2018-09-08T09:31:31.413Z,1007.10
2018-09-08T09:32:31.382Z,1007.12
2018-09-08T09:33:31.357Z,1007.16
2018-09-08T09:34:31.340Z,1007.12
2018-09-08T09:35:31.304Z,1007.09
2018-09-08T09:36:31.288Z,1007.08
2018-09-08T09:37:31.259Z,1007.12
2018-09-08T09:38:31.232Z,1007.14
2018-09-08T09:39:31.208Z,1007.13
2018-09-08T09:40:31.182Z,1007.13
2018-09-08T09:41:31.151Z,1007.15
2018-09-08T09:42:31.135Z,1007.09
2018-09-08T09:43:31.104Z,1007.10
2018-09-08T09:44:31.085Z,1007.07
2018-09-08T09:45:31.059Z,1007.10
2018-09-08T09:46:31.025Z,1007.11
2018-09-08T09:47:31.004Z,1007.19
2018-09-08T09:48:30.976Z,1007.16
2018-09-08T09:49:30.977Z,1007.21
2018-09-08T09:50:30.925Z,1007.14
2018-09-08T09:51:30.901Z,1007.14
2018-09-08T09:52:30.878Z,1007.14
2018-09-08T09:53:30.850Z,1007.13
2018-09-08T09:54:30.828Z,1007.13
2018-09-08T09:55:30.804Z,1007.16
2018-09-08T09:56:30.772Z,1007.24
2018-09-08T09:57:30.754Z,1007.18
2018-09-08T09:58:30.721Z,1007.19
2018-09-08T09:59:30.698Z,1007.23
2018-09-08T10:00:30.677Z,1007.26
2018-09-08T10:01:30.644Z,1007.10
2018-09-08T10:02:30.630Z,1007.16
2018-09-08T10:03:30.602Z,1007.11
2018-09-08T10:04:30.567Z,1007.18
2018-09-08T10:05:30.545Z,1007.20
2018-09-08T10:06:30.532Z,1007.14
2018-09-08T10:07:30.501Z,1007.18
2018-09-08T10:08:30.471Z,1007.22
2018-09-08T10:09:30.445Z,1007.21
2018-09-08T10:10:30.417Z,1007.31
2018-09-08T10:11:30.396Z,1007.31
2018-09-08T10:12:30.367Z,1007.34
2018-09-08T10:13:30.345Z,1007.26
2018-09-08T10:14:30.316Z,1007.32
2018-09-08T10:15:30.297Z,1007.33
2018-09-08T10:16:30.262Z,1007.30
2018-09-08T10:17:30.246Z,1007.32
2018-09-08T10:18:30.213Z,1007.33
2018-09-08T10:19:30.190Z,1007.32
2018-09-08T10:20:30.170Z,1007.36
2018-09-08T10:21:30.139Z,1007.34
2018-09-08T10:22:30.115Z,1007.27
2018-09-08T10:23:30.147Z,1007.29
2018-09-08T10:24:30.066Z,1007.30
2018-09-08T10:25:30.062Z,1007.29
2018-09-08T10:26:30.151Z,1007.26
2018-09-08T10:27:29.991Z,1007.26
2018-09-08T10:28:30.253Z,1007.30
2018-09-08T10:29:30.270Z,1007.27
2018-09-08T10:30:29.933Z,1007.23
2018-09-08T10:31:29.889Z,1007.33
2018-09-08T10:32:29.862Z,1007.32
2018-09-08T10:33:29.837Z,1007.33
2018-09-08T10:34:29.820Z,1007.25
2018-09-08T10:35:29.792Z,1007.24
2018-09-08T10:36:29.757Z,1007.26
2018-09-08T10:37:29.737Z,1007.33
2018-09-08T10:38:29.717Z,1007.30
2018-09-08T10:39:29.692Z,1007.33
2018-09-08T10:40:29.672Z,1007.29
2018-09-08T10:41:29.639Z,1007.34
2018-09-08T10:42:29.612Z,1007.38
2018-09-08T10:43:29.587Z,1007.36
2018-09-08T10:44:29.570Z,1007.35
2018-09-08T10:45:29.536Z,1007.32
2018-09-08T10:46:29.518Z,1007.34
2018-09-08T10:47:29.491Z,1007.27
2018-09-08T10:48:29.462Z,1007.26
2018-09-08T10:49:29.442Z,1007.27
2018-09-08T10:50:29.410Z,1007.23
2018-09-08T10:51:29.390Z,1007.27
2018-09-08T10:52:29.361Z,1007.26
2018-09-08T10:53:29.339Z,1007.23
2018-09-08T10:54:29.311Z,1007.23
2018-09-08T10:55:29.286Z,1007.24
2018-09-08T10:56:29.265Z,1007.27
2018-09-08T10:57:29.237Z,1007.25
2018-09-08T10:58:29.213Z,1007.34
2018-09-08T10:59:29.187Z,1007.26
2018-09-08T11:00:29.164Z,1007.24
2018-09-08T11:01:29.180Z,1007.18
2018-09-08T11:02:29.291Z,1007.29
2018-09-08T11:03:29.094Z,1007.26
2018-09-08T11:04:29.060Z,1007.21
2018-09-08T11:05:29.039Z,1007.20
2018-09-08T11:06:29.012Z,1007.21
2018-09-08T11:07:28.982Z,1007.16
2018-09-08T11:08:28.989Z,1007.19
2018-09-08T11:09:28.980Z,1007.16
2018-09-08T11:10:28.918Z,1007.17
2018-09-08T11:11:28.886Z,1007.15
2018-09-08T11:12:28.862Z,1007.20
2018-09-08T11:13:28.835Z,1007.17
2018-09-08T11:14:28.814Z,1007.14
2018-09-08T11:15:28.826Z,1007.19
2018-09-08T11:16:28.764Z,1007.17
2018-09-08T11:17:28.743Z,1007.11
2018-09-08T11:18:28.708Z,1007.08
2018-09-08T11:19:28.691Z,1007.10
2018-09-08T11:20:28.662Z,1007.13
2018-09-08T11:21:28.635Z,1007.13
2018-09-08T11:22:28.620Z,1007.10
2018-09-08T11:23:28.592Z,1007.04
2018-09-08T11:24:28.561Z,1007.12
2018-09-08T11:25:28.536Z,1007.01
2018-09-08T11:26:28.510Z,1006.99
2018-09-08T11:27:28.490Z,1007.06
2018-09-08T11:28:28.467Z,1007.01
2018-09-08T11:29:28.435Z,1006.95
2018-09-08T11:30:28.430Z,1006.98
2018-09-08T11:31:28.386Z,1006.97
2018-09-08T11:32:28.368Z,1006.99
2018-09-08T11:33:28.342Z,1007.00
2018-09-08T11:34:28.321Z,1007.02
2018-09-08T11:35:28.292Z,1007.01
2018-09-08T11:36:28.260Z,1006.98
2018-09-08T11:37:28.247Z,1006.95
2018-09-08T11:38:28.261Z,1007.00
2018-09-08T11:39:28.186Z,1006.97
2018-09-08T11:40:28.163Z,1006.94
2018-09-08T11:41:28.143Z,1006.98
2018-09-08T11:42:28.112Z,1006.92
2018-09-08T11:43:28.090Z,1006.93
2018-09-08T11:44:28.067Z,1006.94
2018-09-08T11:45:28.045Z,1006.96
2018-09-08T11:46:28.017Z,1006.95
2018-09-08T11:47:27.991Z,1006.98
2018-09-08T11:48:27.966Z,1006.93
2018-09-08T11:49:27.949Z,1006.99
2018-09-08T11:50:27.918Z,1006.98
2018-09-08T11:51:27.889Z,1007.04
2018-09-08T11:52:27.871Z,1006.93
2018-09-08T11:53:27.837Z,1006.97
2018-09-08T11:54:27.822Z,1006.96
2018-09-08T11:55:27.795Z,1006.92
2018-09-08T11:56:27.763Z,1007.00
2018-09-08T11:57:27.748Z,1006.99
2018-09-08T11:58:27.714Z,1007.00
2018-09-08T11:59:27.974Z,1007.00
2018-09-08T12:00:27.672Z,1007.00
2018-09-08T12:01:27.649Z,1007.05
2018-09-08T12:02:27.623Z,1007.03
2018-09-08T12:03:27.589Z,1007.06
2018-09-08T12:04:27.577Z,1007.04
2018-09-08T12:05:27.545Z,1007.02